createdAt,value
2023-12-14T00:01:19.098Z,99416.59
2023-12-14T00:03:46.331Z,99428.09
2023-12-14T00:06:14.664Z,99425.63
2023-12-14T00:08:42.242Z,99433.78
2023-12-14T00:11:12.060Z,99436.53
2023-12-14T00:13:40.122Z,99435.94
2023-12-14T00:16:08.808Z,99446.41
2023-12-14T00:18:37.354Z,99441.00
2023-12-14T00:21:05.186Z,99443.66
2023-12-14T00:23:32.452Z,99434.03
2023-12-14T00:25:59.566Z,99453.19
2023-12-14T00:28:29.555Z,99453.38
2023-12-14T00:30:58.227Z,99450.75
2023-12-14T00:33:25.334Z,99451.28
2023-12-14T00:35:52.733Z,99454.63
2023-12-14T00:38:19.886Z,99451.97
2023-12-14T00:40:47.051Z,99452.91
2023-12-14T00:43:14.541Z,99460.06
2023-12-14T00:45:42.639Z,99468.91
2023-12-14T00:48:09.882Z,99456.28
2023-12-14T00:50:36.980Z,99475.09
2023-12-14T00:53:04.272Z,99483.69
2023-12-14T00:55:31.424Z,99489.09
2023-12-14T00:57:58.940Z,99478.69
2023-12-14T01:00:26.242Z,99490.44
2023-12-14T01:02:53.326Z,99506.19
2023-12-14T01:05:20.583Z,99512.38
2023-12-14T01:07:47.753Z,99514.28
2023-12-14T01:10:16.121Z,99519.59
2023-12-14T01:12:43.211Z,99528.53
2023-12-14T01:15:10.974Z,99526.78
2023-12-14T01:17:38.905Z,99529.44
2023-12-14T01:20:10.492Z,99538.16
2023-12-14T01:22:38.079Z,99543.47
2023-12-14T01:25:05.860Z,99537.22
2023-12-14T01:27:32.930Z,99553.81
2023-12-14T01:29:59.990Z,99550.28
2023-12-14T01:32:27.201Z,99556.22
2023-12-14T01:34:54.269Z,99565.94
2023-12-14T01:37:21.406Z,99553.75
2023-12-14T01:39:48.835Z,99565.94
2023-12-14T01:42:15.927Z,99571.53
2023-12-14T01:44:43.082Z,99582.81
2023-12-14T01:47:10.933Z,99575.97
2023-12-14T01:49:38.117Z,99580.16
2023-12-14T01:52:05.696Z,99592.53
2023-12-14T01:54:32.771Z,99597.91
2023-12-14T01:57:00.480Z,99596.28
2023-12-14T01:59:27.586Z,99601.47
2023-12-14T02:01:57.789Z,99604.91
2023-12-14T02:04:27.182Z,99600.91
2023-12-14T02:06:54.250Z,99606.00
2023-12-14T02:09:21.324Z,99596.28
2023-12-14T02:11:48.407Z,99618.13
2023-12-14T02:14:15.621Z,99619.78
2023-12-14T02:16:43.018Z,99616.19
2023-12-14T02:19:10.153Z,99599.72
2023-12-14T02:21:37.314Z,99606.47
2023-12-14T02:24:04.984Z,99610.94
2023-12-14T02:26:32.106Z,99605.66
2023-12-14T02:28:59.300Z,99616.94
2023-12-14T02:31:26.496Z,99616.81
2023-12-14T02:33:53.617Z,99623.00
2023-12-14T02:36:20.768Z,99622.91
2023-12-14T02:38:48.003Z,99636.16
2023-12-14T02:41:15.263Z,99645.09
2023-12-14T02:43:42.425Z,99645.16
2023-12-14T02:46:10.109Z,99647.78
2023-12-14T02:48:37.582Z,99653.09
2023-12-14T02:51:05.186Z,99648.06
2023-12-14T02:53:32.247Z,99662.19
2023-12-14T02:56:03.358Z,99670.97
2023-12-14T02:58:30.559Z,99671.13
2023-12-14T03:00:57.777Z,99661.25
2023-12-14T03:03:24.957Z,99676.19
2023-12-14T03:05:52.183Z,99681.53
2023-12-14T03:08:19.377Z,99679.75
2023-12-14T03:10:46.486Z,99681.53
2023-12-14T03:13:13.617Z,99689.47
2023-12-14T03:15:43.733Z,99686.00
2023-12-14T03:18:10.949Z,99698.13
2023-12-14T03:20:38.235Z,99698.94
2023-12-14T03:23:05.294Z,99698.09
2023-12-14T03:25:32.448Z,99708.56
2023-12-14T03:27:59.624Z,99705.91
2023-12-14T03:30:28.015Z,99699.72
2023-12-14T03:32:55.319Z,99705.84
2023-12-14T03:35:23.181Z,99697.22
2023-12-14T03:37:50.504Z,99705.75
2023-12-14T03:40:17.626Z,99715.56
2023-12-14T03:42:44.747Z,99716.50
2023-12-14T03:45:12.110Z,99708.50
2023-12-14T03:47:39.260Z,99731.47
2023-12-14T03:50:07.667Z,99732.41
2023-12-14T03:52:35.373Z,99734.22
2023-12-14T03:55:02.875Z,99744.75
2023-12-14T03:57:30.000Z,99757.97
2023-12-14T03:59:57.145Z,99751.00
2023-12-14T04:02:24.263Z,99752.66
2023-12-14T04:04:51.662Z,99755.22
2023-12-14T04:07:18.844Z,99767.59
2023-12-14T04:09:46.852Z,99772.16
2023-12-14T04:12:14.023Z,99772.16
2023-12-14T04:14:41.111Z,99771.78
2023-12-14T04:17:08.842Z,99779.00
2023-12-14T04:19:36.034Z,99784.59
2023-12-14T04:22:03.167Z,99790.75
2023-12-14T04:24:31.330Z,99789.78
2023-12-14T04:26:59.480Z,99787.13
2023-12-14T04:29:26.519Z,99795.03
2023-12-14T04:31:54.667Z,99801.94
2023-12-14T04:34:21.951Z,99788.84
2023-12-14T04:36:49.750Z,99804.63
2023-12-14T04:39:17.900Z,99810.88
2023-12-14T04:41:45.356Z,99819.03
2023-12-14T04:44:13.011Z,99816.59
2023-12-14T04:46:40.170Z,99810.47
2023-12-14T04:49:07.321Z,99810.69
2023-12-14T04:51:34.502Z,99833.75
2023-12-14T04:54:01.562Z,99831.28
2023-12-14T04:56:28.720Z,99831.38
2023-12-14T04:58:55.999Z,99836.16
2023-12-14T05:01:23.138Z,99850.13
2023-12-14T05:03:50.260Z,99859.81
2023-12-14T05:06:17.618Z,99856.31
2023-12-14T05:08:44.742Z,99860.78
2023-12-14T05:11:13.841Z,99869.53
2023-12-14T05:13:41.643Z,99866.88
2023-12-14T05:16:15.765Z,99874.75
2023-12-14T05:18:42.913Z,99882.88
2023-12-14T05:21:10.216Z,99888.91
2023-12-14T05:23:37.361Z,99890.72
2023-12-14T05:26:04.953Z,99892.38
2023-12-14T05:28:32.040Z,99899.41
2023-12-14T05:30:59.244Z,99905.63
2023-12-14T05:33:26.397Z,99908.31
2023-12-14T05:35:53.647Z,99913.56
2023-12-14T05:38:20.775Z,99906.63
2023-12-14T05:40:47.964Z,99918.66
2023-12-14T05:43:15.070Z,99917.84
2023-12-14T05:45:42.412Z,99915.13
2023-12-14T05:48:09.758Z,99931.78
2023-12-14T05:50:36.980Z,99928.16
2023-12-14T05:53:04.127Z,99918.44
2023-12-14T05:55:31.283Z,99931.59
2023-12-14T05:57:58.672Z,99936.88
2023-12-14T06:00:25.903Z,99932.41
2023-12-14T06:02:53.057Z,99947.56
2023-12-14T06:05:21.740Z,99944.28
2023-12-14T06:07:48.999Z,99946.97
2023-12-14T06:10:16.065Z,99972.75
2023-12-14T06:12:43.211Z,99972.19
2023-12-14T06:15:11.932Z,99977.50
2023-12-14T06:17:40.442Z,99987.53
2023-12-14T06:20:11.923Z,99985.19
2023-12-14T06:22:39.302Z,99993.22
2023-12-14T06:25:06.928Z,100004.22
2023-12-14T06:27:33.986Z,100013.63
2023-12-14T06:30:01.016Z,100010.78
2023-12-14T06:32:28.361Z,100011.50
2023-12-14T06:34:55.491Z,100019.41
2023-12-14T06:37:22.616Z,100023.75
2023-12-14T06:39:49.752Z,100021.88
2023-12-14T06:42:16.839Z,100036.06
2023-12-14T06:44:43.972Z,100037.00
2023-12-14T06:47:11.097Z,100041.31
2023-12-14T06:49:38.310Z,100039.59
2023-12-14T06:52:05.489Z,100048.53
2023-12-14T06:54:32.586Z,100054.72
2023-12-14T06:56:59.693Z,100046.94
2023-12-14T06:59:26.789Z,100062.78
2023-12-14T07:01:53.906Z,100061.13
2023-12-14T07:04:21.082Z,100068.22
2023-12-14T07:06:54.808Z,100075.31
2023-12-14T07:09:21.968Z,100071.94
2023-12-14T07:11:49.006Z,100077.97
2023-12-14T07:14:16.185Z,100087.75
2023-12-14T07:16:43.949Z,100089.00
2023-12-14T07:19:12.482Z,100110.16
2023-12-14T07:21:39.589Z,100111.94
2023-12-14T07:24:07.055Z,100118.09
2023-12-14T07:26:34.093Z,100120.75
2023-12-14T07:29:01.227Z,100117.34
2023-12-14T07:31:30.041Z,100114.56
2023-12-14T07:33:58.096Z,100115.56
2023-12-14T07:36:25.222Z,100117.09
2023-12-14T07:38:55.429Z,100135.53
2023-12-14T07:41:27.543Z,100126.13
2023-12-14T07:43:54.742Z,100137.41
2023-12-14T07:46:22.094Z,100138.28
2023-12-14T07:48:49.221Z,100147.06
2023-12-14T07:51:16.391Z,100146.19
2023-12-14T07:53:43.964Z,100159.53
2023-12-14T07:56:11.067Z,100159.59
2023-12-14T07:58:38.366Z,100166.84
2023-12-14T08:01:05.809Z,100182.81
2023-12-14T08:03:32.960Z,100182.72
2023-12-14T08:06:00.179Z,100179.97
2023-12-14T08:08:27.410Z,100182.66
2023-12-14T08:10:54.489Z,100193.13
2023-12-14T08:13:21.674Z,100199.31
2023-12-14T08:15:48.799Z,100209.03
2023-12-14T08:18:15.974Z,100217.88
2023-12-14T08:20:43.178Z,100220.50
2023-12-14T08:23:10.317Z,100226.63
2023-12-14T08:25:37.566Z,100230.13
2023-12-14T08:28:05.825Z,100222.97
2023-12-14T08:30:33.211Z,100234.34
2023-12-14T08:33:00.412Z,100236.25
2023-12-14T08:35:27.607Z,100236.25
2023-12-14T08:37:54.780Z,100251.25
2023-12-14T08:40:21.981Z,100254.69
2023-12-14T08:42:49.631Z,100263.63
2023-12-14T08:45:16.911Z,100269.69
2023-12-14T08:47:44.257Z,100263.69
2023-12-14T08:50:11.476Z,100278.44
2023-12-14T08:52:39.236Z,100287.16
2023-12-14T08:55:07.347Z,100282.97
2023-12-14T08:57:34.448Z,100295.09
2023-12-14T09:00:01.773Z,100302.13
2023-12-14T09:02:28.951Z,100296.91
2023-12-14T09:04:56.225Z,100307.44
2023-12-14T09:07:23.367Z,100321.47
2023-12-14T09:09:50.436Z,100323.28
2023-12-14T09:12:17.624Z,100322.16
2023-12-14T09:14:44.795Z,100319.59
2023-12-14T09:17:11.979Z,100336.16
2023-12-14T09:19:39.078Z,100339.69
2023-12-14T09:22:06.356Z,100347.56
2023-12-14T09:24:33.555Z,100338.91
2023-12-14T09:27:00.828Z,100350.09
2023-12-14T09:29:28.071Z,100348.44
2023-12-14T09:31:55.895Z,100356.38
2023-12-14T09:34:23.226Z,100361.59
2023-12-14T09:36:50.356Z,100377.53
2023-12-14T09:39:20.140Z,100358.09
2023-12-14T09:41:48.291Z,100359.78
2023-12-14T09:44:15.656Z,100375.53
2023-12-14T09:46:50.204Z,100383.22
2023-12-14T09:49:19.522Z,100387.41
2023-12-14T09:51:47.882Z,100390.00
2023-12-14T09:54:15.068Z,100405.00
2023-12-14T09:56:48.845Z,100399.41
2023-12-14T09:59:16.662Z,100406.41
2023-12-14T10:01:45.804Z,100409.81
2023-12-14T10:04:16.126Z,100415.09
2023-12-14T10:06:46.057Z,100418.78
2023-12-14T10:09:19.191Z,100427.66
2023-12-14T10:11:46.620Z,100428.72
2023-12-14T10:14:26.565Z,100429.72
2023-12-14T10:17:02.699Z,100428.34
2023-12-14T10:19:31.155Z,100433.09
2023-12-14T10:21:58.544Z,100442.91
2023-12-14T10:24:25.698Z,100441.97
2023-12-14T10:26:53.381Z,100438.44
2023-12-14T10:29:21.680Z,100441.75
2023-12-14T10:31:51.135Z,100433.56
2023-12-14T10:34:18.260Z,100440.59
2023-12-14T10:36:47.324Z,100447.38
2023-12-14T10:39:16.900Z,100434.13
2023-12-14T10:41:54.776Z,100442.72
2023-12-14T10:44:47.963Z,100449.53
2023-12-14T10:47:16.916Z,100443.38
2023-12-14T10:49:50.208Z,100453.59
2023-12-14T10:52:19.555Z,100458.81
2023-12-14T10:54:48.029Z,100444.72
2023-12-14T10:57:15.276Z,100459.69
2023-12-14T10:59:43.706Z,100459.59
2023-12-14T11:02:11.930Z,100471.81
2023-12-14T11:05:06.714Z,100473.69
2023-12-14T11:07:56.290Z,100478.19
2023-12-14T11:10:28.359Z,100481.13
2023-12-14T11:13:04.542Z,100478.44
2023-12-14T11:15:34.918Z,100474.38
2023-12-14T11:18:11.875Z,100481.44
2023-12-14T11:21:22.353Z,100497.03
2023-12-14T11:23:52.191Z,100493.69
2023-12-14T11:26:25.934Z,100499.13
2023-12-14T11:28:53.996Z,100507.25
2023-12-14T11:31:21.994Z,100501.97
2023-12-14T11:33:49.368Z,100514.50
2023-12-14T11:36:17.165Z,100512.94
2023-12-14T11:38:45.264Z,100519.16
2023-12-14T11:41:12.633Z,100518.22
2023-12-14T11:43:44.737Z,100531.25
2023-12-14T11:46:13.114Z,100538.41
2023-12-14T11:48:40.541Z,100538.31
2023-12-14T11:51:08.017Z,100543.59
2023-12-14T11:53:39.648Z,100543.56
2023-12-14T11:56:08.276Z,100540.25
2023-12-14T11:58:35.860Z,100541.25
2023-12-14T12:01:20.366Z,100556.34
2023-12-14T12:03:48.083Z,100535.44
2023-12-14T12:06:31.599Z,100546.03
2023-12-14T12:08:59.919Z,100545.22
2023-12-14T12:11:28.687Z,100537.41
2023-12-14T12:13:58.417Z,100540.75
2023-12-14T12:16:26.291Z,100552.22
2023-12-14T12:18:53.971Z,100562.78
2023-12-14T12:21:21.327Z,100552.97
2023-12-14T12:23:48.575Z,100552.19
2023-12-14T12:26:16.293Z,100569.09
2023-12-14T12:28:43.488Z,100564.78
2023-12-14T12:31:10.693Z,100562.28
2023-12-14T12:33:39.393Z,100566.63
2023-12-14T12:36:07.658Z,100555.41
2023-12-14T12:38:34.920Z,100574.88
2023-12-14T12:41:03.192Z,100570.53
2023-12-14T12:43:30.459Z,100568.75
2023-12-14T12:45:59.599Z,100568.75
2023-12-14T12:48:28.152Z,100569.69
2023-12-14T12:50:55.923Z,100579.16
2023-12-14T12:53:23.285Z,100572.09
2023-12-14T12:55:50.525Z,100565.63
2023-12-14T12:58:17.765Z,100575.34
2023-12-14T13:00:44.842Z,100574.41
2023-12-14T13:03:12.035Z,100577.06
2023-12-14T13:05:39.399Z,100580.34
2023-12-14T13:08:06.698Z,100585.63
2023-12-14T13:10:33.816Z,100587.31
2023-12-14T13:13:01.063Z,100587.31
2023-12-14T13:15:30.478Z,100588.97
2023-12-14T13:17:58.605Z,100589.88
2023-12-14T13:20:25.978Z,100596.59
2023-12-14T13:22:54.364Z,100598.31
2023-12-14T13:25:24.008Z,100603.47
2023-12-14T13:27:51.244Z,100600.47
2023-12-14T13:30:19.390Z,100605.69
2023-12-14T13:32:47.406Z,100608.44
2023-12-14T13:35:15.186Z,100614.56
2023-12-14T13:37:42.560Z,100618.16
2023-12-14T13:40:13.191Z,100619.09
2023-12-14T13:42:47.158Z,100633.13
2023-12-14T13:45:22.308Z,100624.25
2023-12-14T13:47:49.477Z,100633.81
2023-12-14T13:50:16.660Z,100638.38
2023-12-14T13:52:44.608Z,100647.34
2023-12-14T13:55:11.698Z,100647.34
2023-12-14T13:57:38.841Z,100655.41
2023-12-14T14:00:07.194Z,100665.03
2023-12-14T14:02:35.080Z,100657.03
2023-12-14T14:05:02.562Z,100658.09
2023-12-14T14:07:29.725Z,100673.91
2023-12-14T14:09:56.815Z,100676.41
2023-12-14T14:12:24.003Z,100681.59
2023-12-14T14:14:51.293Z,100679.75
2023-12-14T14:17:18.484Z,100672.69
2023-12-14T14:19:45.637Z,100686.66
2023-12-14T14:22:12.711Z,100693.81
2023-12-14T14:24:39.766Z,100704.41
2023-12-14T14:27:07.011Z,100706.16
2023-12-14T14:29:34.108Z,100711.56
2023-12-14T14:32:01.346Z,100712.50
2023-12-14T14:34:28.627Z,100723.97
2023-12-14T14:36:55.737Z,100723.06
2023-12-14T14:39:23.140Z,100723.09
2023-12-14T14:41:50.266Z,100731.13
2023-12-14T14:44:17.370Z,100740.13
2023-12-14T14:46:44.867Z,100738.50
2023-12-14T14:49:12.151Z,100750.00
2023-12-14T14:51:39.295Z,100751.03
2023-12-14T14:54:06.405Z,100763.66
2023-12-14T14:56:33.512Z,100769.16
2023-12-14T14:59:00.610Z,100762.19
2023-12-14T15:01:27.806Z,100754.53
2023-12-14T15:03:54.907Z,100770.44
2023-12-14T15:06:23.981Z,100765.13
2023-12-14T15:08:51.093Z,100777.69
2023-12-14T15:11:18.292Z,100796.38
2023-12-14T15:13:45.722Z,100796.47
2023-12-14T15:16:13.014Z,100802.88
2023-12-14T15:18:42.783Z,100798.59
2023-12-14T15:21:16.431Z,100804.88
2023-12-14T15:23:45.280Z,100805.72
2023-12-14T15:26:12.631Z,100803.16
2023-12-14T15:28:40.153Z,100810.22
2023-12-14T15:31:07.332Z,100822.75
2023-12-14T15:33:34.593Z,100810.66
2023-12-14T15:36:01.929Z,100828.31
2023-12-14T15:38:29.797Z,100837.28
2023-12-14T15:40:57.050Z,100840.06
2023-12-14T15:43:24.248Z,100846.47
2023-12-14T15:45:52.146Z,100859.66
2023-12-14T15:48:19.435Z,100854.38
2023-12-14T15:50:47.567Z,100870.31
2023-12-14T15:53:14.990Z,100872.84
2023-12-14T15:55:42.240Z,100870.31
2023-12-14T15:58:12.347Z,100878.19
2023-12-14T16:00:40.078Z,100881.72
2023-12-14T16:03:09.300Z,100887.03
2023-12-14T16:05:37.027Z,100893.16
2023-12-14T16:08:04.499Z,100897.63
2023-12-14T16:10:31.788Z,100909.13
2023-12-14T16:12:58.893Z,100897.69
2023-12-14T16:15:26.062Z,100915.38
2023-12-14T16:17:53.559Z,100914.75
2023-12-14T16:20:23.871Z,100927.34
2023-12-14T16:22:51.863Z,100927.59
2023-12-14T16:25:19.622Z,100933.09
2023-12-14T16:27:49.558Z,100949.25
2023-12-14T16:30:17.376Z,100951.50
2023-12-14T16:32:44.786Z,100944.78
2023-12-14T16:35:12.343Z,100947.00
2023-12-14T16:37:39.470Z,100960.47
2023-12-14T16:40:07.658Z,100966.00
2023-12-14T16:42:35.045Z,100958.59
2023-12-14T16:45:02.309Z,100973.84
2023-12-14T16:47:29.469Z,100979.28
2023-12-14T16:49:56.738Z,100982.97
2023-12-14T16:52:23.802Z,100986.66
2023-12-14T16:54:50.934Z,100989.53
2023-12-14T16:57:18.083Z,100985.31
2023-12-14T16:59:45.552Z,100987.09
2023-12-14T17:02:14.145Z,100999.56
2023-12-14T17:04:41.743Z,101013.78
2023-12-14T17:07:08.818Z,101015.63
2023-12-14T17:09:35.919Z,101026.28
2023-12-14T17:12:04.085Z,101021.97
2023-12-14T17:14:31.169Z,101041.38
2023-12-14T17:16:59.512Z,101034.22
2023-12-14T17:19:27.332Z,101049.34
2023-12-14T17:21:55.095Z,101050.25
2023-12-14T17:24:22.261Z,101059.06
2023-12-14T17:26:49.367Z,101063.47
2023-12-14T17:29:16.471Z,101068.78
2023-12-14T17:31:44.708Z,101068.78
2023-12-14T17:34:11.981Z,101075.00
2023-12-14T17:36:42.984Z,101077.75
2023-12-14T17:39:10.085Z,101091.19
2023-12-14T17:41:37.212Z,101091.06
2023-12-14T17:44:04.622Z,101086.69
2023-12-14T17:46:31.686Z,101094.63
2023-12-14T17:48:59.818Z,101094.66
2023-12-14T17:51:29.903Z,101103.53
2023-12-14T17:53:57.023Z,101113.31
2023-12-14T17:56:24.194Z,101120.41
2023-12-14T17:58:51.432Z,101118.69
2023-12-14T18:01:18.612Z,101114.34
2023-12-14T18:03:45.728Z,101122.31
2023-12-14T18:06:12.856Z,101134.72
2023-12-14T18:08:39.964Z,101136.50
2023-12-14T18:11:07.412Z,101135.75
2023-12-14T18:13:34.580Z,101143.75
2023-12-14T18:16:03.475Z,101138.53
2023-12-14T18:18:30.747Z,101151.06
2023-12-14T18:20:58.149Z,101159.28
2023-12-14T18:23:25.375Z,101159.34
2023-12-14T18:25:52.472Z,101156.88
2023-12-14T18:28:19.723Z,101176.31
2023-12-14T18:30:47.056Z,101172.84
2023-12-14T18:33:14.828Z,101166.75
2023-12-14T18:35:42.309Z,101178.34
2023-12-14T18:38:09.601Z,101187.25
2023-12-14T18:40:36.921Z,101183.81
2023-12-14T18:43:03.993Z,101196.22
2023-12-14T18:45:31.258Z,101205.97
2023-12-14T18:47:58.453Z,101208.66
2023-12-14T18:50:25.700Z,101212.19
2023-12-14T18:52:57.811Z,101206.97
2023-12-14T18:55:25.539Z,101216.72
2023-12-14T18:57:53.406Z,101229.13
2023-12-14T19:00:20.717Z,101229.97
2023-12-14T19:02:47.846Z,101234.47
2023-12-14T19:05:15.613Z,101230.97
2023-12-14T19:07:43.126Z,101244.19
2023-12-14T19:10:11.055Z,101241.53
2023-12-14T19:12:38.313Z,101236.34
2023-12-14T19:15:07.307Z,101246.91
2023-12-14T19:17:34.728Z,101249.63
2023-12-14T19:20:02.393Z,101261.97
2023-12-14T19:22:30.392Z,101256.69
2023-12-14T19:24:57.494Z,101258.50
2023-12-14T19:27:24.626Z,101262.06
2023-12-14T19:29:51.714Z,101257.66
2023-12-14T19:32:18.896Z,101275.25
2023-12-14T19:34:46.143Z,101281.47
2023-12-14T19:37:13.252Z,101289.44
2023-12-14T19:39:40.315Z,101290.31
2023-12-14T19:42:08.130Z,101292.09
2023-12-14T19:44:35.284Z,101293.03
2023-12-14T19:47:02.706Z,101301.78
2023-12-14T19:49:30.065Z,101299.13
2023-12-14T19:51:57.714Z,101308.00
2023-12-14T19:54:24.816Z,101304.44
2023-12-14T19:56:52.428Z,101315.06
2023-12-14T19:59:20.437Z,101315.06
2023-12-14T20:01:47.636Z,101315.97
2023-12-14T20:04:17.537Z,101321.19
2023-12-14T20:06:44.884Z,101324.78
2023-12-14T20:09:11.993Z,101313.31
2023-12-14T20:11:40.747Z,101324.78
2023-12-14T20:14:09.202Z,101331.88
2023-12-14T20:16:38.098Z,101331.19
2023-12-14T20:19:05.270Z,101340.94
2023-12-14T20:21:36.674Z,101354.25
2023-12-14T20:24:04.108Z,101357.81
2023-12-14T20:26:32.065Z,101369.34
2023-12-14T20:28:59.898Z,101377.31
2023-12-14T20:31:27.523Z,101377.31
2023-12-14T20:33:55.398Z,101379.19
2023-12-14T20:36:22.479Z,101384.50
2023-12-14T20:38:49.522Z,101388.03
2023-12-14T20:41:16.892Z,101394.22
2023-12-14T20:43:44.124Z,101403.91
2023-12-14T20:46:11.280Z,101401.25
2023-12-14T20:48:40.864Z,101412.72
2023-12-14T20:51:08.325Z,101397.81
2023-12-14T20:53:35.482Z,101397.75
2023-12-14T20:56:02.597Z,101417.13
2023-12-14T20:58:31.702Z,101424.22
2023-12-14T21:00:58.816Z,101435.69
2023-12-14T21:03:26.013Z,101427.69
2023-12-14T21:05:53.400Z,101439.22
2023-12-14T21:08:20.648Z,101429.50
2023-12-14T21:10:47.957Z,101438.31
2023-12-14T21:13:15.089Z,101450.72
2023-12-14T21:15:42.188Z,101444.63
2023-12-14T21:18:09.521Z,101452.66
2023-12-14T21:20:36.825Z,101465.94
2023-12-14T21:23:04.238Z,101465.06
2023-12-14T21:25:39.420Z,101464.22
2023-12-14T21:28:07.489Z,101462.50
2023-12-14T21:30:35.836Z,101472.13
2023-12-14T21:33:04.255Z,101477.44
2023-12-14T21:35:31.648Z,101473.13
2023-12-14T21:37:58.881Z,101481.09
2023-12-14T21:40:26.059Z,101482.81
2023-12-14T21:42:53.155Z,101493.44
2023-12-14T21:45:20.360Z,101488.16
2023-12-14T21:47:47.542Z,101493.47
2023-12-14T21:50:14.776Z,101501.47
2023-12-14T21:52:42.026Z,101498.81
2023-12-14T21:55:09.512Z,101498.81
2023-12-14T21:57:36.772Z,101508.53
2023-12-14T22:00:04.917Z,101506.78
2023-12-14T22:02:32.073Z,101516.56
2023-12-14T22:04:59.238Z,101521.88
2023-12-14T22:07:26.354Z,101517.47
2023-12-14T22:09:53.495Z,101521.88
2023-12-14T22:12:21.033Z,101523.63
2023-12-14T22:14:48.234Z,101531.63
2023-12-14T22:17:15.326Z,101536.13
2023-12-14T22:19:42.475Z,101526.38
2023-12-14T22:22:09.644Z,101532.72
2023-12-14T22:24:36.798Z,101538.00
2023-12-14T22:27:04.132Z,101550.38
2023-12-14T22:29:31.432Z,101542.44
2023-12-14T22:32:00.138Z,101538.09
2023-12-14T22:34:27.328Z,101546.03
2023-12-14T22:36:54.453Z,101559.31
2023-12-14T22:39:21.549Z,101552.22
2023-12-14T22:41:48.743Z,101556.63
2023-12-14T22:44:15.993Z,101562.78
2023-12-14T22:46:43.221Z,101568.13
2023-12-14T22:49:10.503Z,101555.84
2023-12-14T22:51:38.296Z,101571.72
2023-12-14T22:54:05.824Z,101582.31
2023-12-14T22:56:33.400Z,101575.28
2023-12-14T22:59:00.830Z,101583.22
2023-12-14T23:01:33.306Z,101580.53
2023-12-14T23:04:04.155Z,101592.03
2023-12-14T23:06:35.488Z,101590.34
2023-12-14T23:09:04.674Z,101605.41
2023-12-14T23:11:31.845Z,101604.53
2023-12-14T23:13:59.277Z,101604.53
2023-12-14T23:16:26.745Z,101610.75
2023-12-14T23:18:54.064Z,101605.50
2023-12-14T23:21:21.308Z,101617.06
2023-12-14T23:23:50.464Z,101625.84
2023-12-14T23:26:17.617Z,101629.44
2023-12-14T23:28:44.779Z,101637.38
2023-12-14T23:31:11.837Z,101630.31
2023-12-14T23:33:39.073Z,101638.25
2023-12-14T23:36:06.960Z,101644.41
2023-12-14T23:38:34.082Z,101649.75
2023-12-14T23:41:01.337Z,101652.41
2023-12-14T23:43:28.614Z,101639.13
2023-12-14T23:45:55.794Z,101644.41
2023-12-14T23:48:23.008Z,101655.97
2023-12-14T23:50:50.168Z,101669.25
2023-12-14T23:53:17.291Z,101670.19
2023-12-14T23:55:44.378Z,101666.72
2023-12-14T23:58:11.523Z,101671.94
